createdAt,value
2018-08-23T00:00:04.042Z,56.20
2018-08-23T00:02:32.797Z,56.50
2018-08-23T00:04:59.961Z,56.50
2018-08-23T00:07:27.121Z,56.40
2018-08-23T00:09:54.290Z,56.40
2018-08-23T00:12:26.933Z,56.40
2018-08-23T00:14:54.113Z,56.60
2018-08-23T00:17:21.285Z,56.80
2018-08-23T00:19:48.444Z,57.40
2018-08-23T00:22:21.388Z,57.70
2018-08-23T00:24:48.541Z,58.10
2018-08-23T00:27:20.307Z,58.20
2018-08-23T00:29:47.497Z,57.90
2018-08-23T00:32:15.056Z,58.00
2018-08-23T00:34:42.217Z,57.80
2018-08-23T00:37:11.949Z,58.70
2018-08-23T00:39:39.104Z,58.70
2018-08-23T00:42:08.713Z,58.70
2018-08-23T00:44:56.669Z,58.70
2018-08-23T00:47:25.021Z,60.00
2018-08-23T00:49:52.182Z,60.00
2018-08-23T00:52:29.530Z,59.60
2018-08-23T00:55:07.057Z,59.50
2018-08-23T00:57:34.221Z,59.60
2018-08-23T01:00:02.194Z,59.80
2018-08-23T01:02:29.370Z,59.40
2018-08-23T01:04:56.538Z,59.30
2018-08-23T01:07:26.645Z,58.70
2018-08-23T01:09:53.857Z,58.60
2018-08-23T01:12:21.039Z,58.60
2018-08-23T01:14:50.232Z,58.70
2018-08-23T01:17:18.167Z,58.80
2018-08-23T01:19:51.149Z,59.30
2018-08-23T01:22:18.371Z,59.20
2018-08-23T01:24:47.597Z,59.20
2018-08-23T01:27:24.209Z,59.30
2018-08-23T01:29:51.956Z,59.60
2018-08-23T01:32:23.712Z,59.60
2018-08-23T01:34:50.983Z,59.70
2018-08-23T01:37:35.941Z,59.80
2018-08-23T01:40:05.344Z,60.50
2018-08-23T01:42:33.603Z,61.50
2018-08-23T01:45:01.777Z,60.90
2018-08-23T01:47:33.348Z,61.00
2018-08-23T01:50:00.493Z,61.90
2018-08-23T01:52:27.657Z,62.90
2018-08-23T01:54:54.836Z,63.20
2018-08-23T01:57:26.600Z,63.50
2018-08-23T01:59:53.770Z,63.60
2018-08-23T02:02:21.029Z,63.70
2018-08-23T02:04:48.194Z,63.10
2018-08-23T02:07:15.361Z,63.20
2018-08-23T02:09:42.532Z,63.50
2018-08-23T02:12:09.698Z,63.90
2018-08-23T02:14:43.237Z,64.00
2018-08-23T02:17:10.457Z,63.60
2018-08-23T02:19:43.766Z,63.10
2018-08-23T02:22:11.133Z,62.70
2018-08-23T02:24:38.297Z,62.10
2018-08-23T02:27:05.449Z,62.30
2018-08-23T02:29:37.238Z,62.40
2018-08-23T02:32:04.789Z,62.60
2018-08-23T02:34:37.682Z,62.60
2018-08-23T02:37:04.861Z,63.00
2018-08-23T02:39:32.089Z,63.20
2018-08-23T02:41:59.330Z,63.30
2018-08-23T02:44:26.493Z,62.80
2018-08-23T02:46:53.649Z,63.20
2018-08-23T02:49:20.817Z,63.60
2018-08-23T02:51:49.758Z,64.00
2018-08-23T02:54:16.924Z,64.20
2018-08-23T02:57:00.660Z,64.40
2018-08-23T02:59:28.502Z,63.30
2018-08-23T03:01:55.709Z,63.10
2018-08-23T03:04:23.929Z,64.00
2018-08-23T03:07:02.853Z,63.50
2018-08-23T03:09:35.330Z,63.80
2018-08-23T03:12:08.728Z,64.00
2018-08-23T03:14:36.290Z,63.90
2018-08-23T03:17:29.064Z,63.90
2018-08-23T03:20:00.081Z,63.90
2018-08-23T03:22:27.629Z,64.00
2018-08-23T03:24:55.175Z,64.50
2018-08-23T03:27:22.333Z,64.70
2018-08-23T03:29:49.617Z,65.10
2018-08-23T03:32:16.797Z,65.50
2018-08-23T03:34:43.973Z,64.80
2018-08-23T03:37:11.129Z,64.20
2018-08-23T03:39:38.301Z,64.90
2018-08-23T03:42:05.693Z,64.90
2018-08-23T03:44:37.944Z,65.50
2018-08-23T03:47:05.096Z,65.00
2018-08-23T03:49:37.973Z,65.80
2018-08-23T03:52:05.143Z,66.50
2018-08-23T03:54:32.309Z,67.00
2018-08-23T03:57:12.336Z,67.00
2018-08-23T03:59:42.291Z,67.00
2018-08-23T04:02:09.477Z,66.80
2018-08-23T04:04:36.641Z,66.70
2018-08-23T04:07:03.973Z,66.80
2018-08-23T04:09:31.125Z,67.00
2018-08-23T04:11:58.294Z,67.10
2018-08-23T04:14:25.444Z,67.10
2018-08-23T04:16:59.272Z,67.00
2018-08-23T04:19:27.597Z,67.40
2018-08-23T04:21:54.765Z,67.40
2018-08-23T04:24:21.938Z,67.40
2018-08-23T04:26:49.106Z,67.60
2018-08-23T04:29:30.545Z,68.20
2018-08-23T04:31:57.737Z,67.50
2018-08-23T04:34:24.886Z,66.60
2018-08-23T04:36:52.065Z,66.50
2018-08-23T04:39:19.221Z,66.80
2018-08-23T04:41:46.421Z,66.80
2018-08-23T04:44:15.419Z,67.70
2018-08-23T04:46:42.725Z,67.90
2018-08-23T04:49:09.901Z,67.60
2018-08-23T04:51:37.399Z,67.30
2018-08-23T04:54:05.121Z,67.30
2018-08-23T04:56:32.493Z,66.80
2018-08-23T04:58:59.833Z,66.50
2018-08-23T05:01:27.022Z,66.40
2018-08-23T05:03:54.196Z,66.00
2018-08-23T05:06:21.393Z,65.80
2018-08-23T05:08:48.845Z,65.90
2018-08-23T05:11:16.009Z,65.90
2018-08-23T05:13:43.706Z,65.80
2018-08-23T05:16:10.869Z,65.80
2018-08-23T05:18:38.011Z,65.40
2018-08-23T05:21:05.294Z,66.00
2018-08-23T05:23:32.441Z,65.90
2018-08-23T05:26:04.204Z,64.90
2018-08-23T05:28:31.409Z,65.00
2018-08-23T05:30:58.566Z,64.90
2018-08-23T05:33:25.758Z,65.40
2018-08-23T05:35:52.933Z,65.20
2018-08-23T05:38:20.187Z,65.10
2018-08-23T05:40:59.033Z,65.90
2018-08-23T05:43:26.193Z,65.60
2018-08-23T05:45:54.736Z,65.10
2018-08-23T05:48:31.672Z,65.20
2018-08-23T05:51:02.865Z,65.90
2018-08-23T05:53:30.026Z,66.50
2018-08-23T05:55:58.497Z,66.20
2018-08-23T05:58:28.972Z,66.50
2018-08-23T06:00:56.193Z,67.10
2018-08-23T06:03:23.474Z,67.40
2018-08-23T06:05:50.982Z,67.30
2018-08-23T06:08:18.333Z,67.60
2018-08-23T06:10:51.017Z,66.60
2018-08-23T06:13:18.489Z,66.00
2018-08-23T06:15:50.658Z,66.70
2018-08-23T06:18:18.520Z,65.70
2018-08-23T06:20:45.910Z,65.40
2018-08-23T06:23:13.854Z,65.00
2018-08-23T06:25:41.495Z,64.40
2018-08-23T06:28:15.621Z,64.90
2018-08-23T06:30:43.182Z,64.70
2018-08-23T06:33:10.595Z,65.10
2018-08-23T06:35:40.145Z,65.10
2018-08-23T06:38:07.721Z,64.30
2018-08-23T06:40:35.121Z,64.40
2018-08-23T06:43:03.541Z,64.60
2018-08-23T06:48:04.934Z,65.10
2018-08-23T06:50:32.145Z,64.10
2018-08-23T06:52:59.317Z,64.20
2018-08-23T06:55:31.385Z,63.90
2018-08-23T06:57:58.836Z,64.70
2018-08-23T07:00:26.379Z,64.00
2018-08-23T07:02:53.581Z,63.60
2018-08-23T07:05:20.764Z,63.30
2018-08-23T07:07:48.045Z,63.60
2018-08-23T07:10:15.948Z,63.10
2018-08-23T07:12:43.169Z,62.20
2018-08-23T07:15:10.344Z,62.10
2018-08-23T07:17:37.677Z,62.30
2018-08-23T07:20:10.641Z,63.10
2018-08-23T07:22:37.800Z,63.70
2018-08-23T07:25:08.285Z,63.10
2018-08-23T07:27:35.418Z,62.80
2018-08-23T07:30:02.660Z,62.80
2018-08-23T07:32:30.389Z,62.50
2018-08-23T07:35:04.105Z,61.50
2018-08-23T07:37:32.473Z,61.70
2018-08-23T07:40:05.455Z,61.50
2018-08-23T07:42:33.433Z,62.10
2018-08-23T07:45:00.997Z,61.10
2018-08-23T07:47:28.648Z,61.20
2018-08-23T07:49:57.041Z,60.80
2018-08-23T07:52:25.325Z,61.30
2018-08-23T07:54:52.481Z,60.40
2018-08-23T07:57:19.909Z,60.40
2018-08-23T07:59:47.277Z,60.50
2018-08-23T08:02:14.626Z,59.60
2018-08-23T08:04:41.792Z,58.40
2018-08-23T08:07:12.186Z,58.70
2018-08-23T08:09:39.392Z,59.70
2018-08-23T08:12:11.174Z,58.30
2018-08-23T08:14:38.690Z,58.40
2018-08-23T08:17:13.469Z,58.70
2018-08-23T08:19:45.258Z,58.90
2018-08-23T08:22:20.905Z,57.90
2018-08-23T08:24:58.509Z,57.80
2018-08-23T08:27:25.945Z,57.40
2018-08-23T08:29:53.117Z,58.30
2018-08-23T08:32:20.268Z,57.80
2018-08-23T08:34:47.467Z,57.00
2018-08-23T08:37:14.675Z,57.10
2018-08-23T08:39:41.854Z,58.90
2018-08-23T08:42:09.014Z,57.20
2018-08-23T08:44:36.429Z,57.50
2018-08-23T08:47:03.621Z,57.50
2018-08-23T08:49:32.052Z,57.60
2018-08-23T08:51:59.246Z,57.10
2018-08-23T08:54:26.414Z,56.40
2018-08-23T08:56:55.186Z,55.00
2018-08-23T08:59:26.274Z,54.90
2018-08-23T09:01:53.613Z,53.60
2018-08-23T09:04:26.573Z,53.50
2018-08-23T09:06:53.738Z,53.30
2018-08-23T09:09:38.154Z,52.60
2018-08-23T09:12:08.474Z,53.60
2018-08-23T09:14:36.437Z,51.50
2018-08-23T09:17:20.994Z,51.90
2018-08-23T09:20:03.006Z,51.00
2018-08-23T09:22:37.503Z,51.60
2018-08-23T09:25:06.596Z,51.20
2018-08-23T09:27:33.749Z,50.10
2018-08-23T09:30:01.013Z,49.40
2018-08-23T09:32:28.869Z,49.10
2018-08-23T09:34:57.247Z,48.90
2018-08-23T09:37:24.585Z,48.60
2018-08-23T09:39:51.785Z,48.10
2018-08-23T09:42:18.941Z,47.50
2018-08-23T09:44:58.649Z,48.20
2018-08-23T09:47:26.306Z,45.00
2018-08-23T09:49:53.485Z,45.10
2018-08-23T09:52:24.859Z,46.60
2018-08-23T09:54:51.977Z,45.90
2018-08-23T09:57:19.145Z,45.90
2018-08-23T09:59:50.937Z,48.00
2018-08-23T10:02:23.765Z,46.30
2018-08-23T10:05:11.542Z,46.70
2018-08-23T10:07:44.518Z,46.20
2018-08-23T10:10:17.373Z,46.60
2018-08-23T10:12:50.425Z,46.40
2018-08-23T10:15:23.510Z,45.30
2018-08-23T10:17:56.333Z,44.40
2018-08-23T10:20:29.237Z,42.80
2018-08-23T10:23:02.566Z,41.20
2018-08-23T10:25:39.025Z,41.10
2018-08-23T10:28:07.669Z,40.60
2018-08-23T10:30:35.006Z,37.80
2018-08-23T10:33:02.175Z,36.40
2018-08-23T10:35:29.373Z,37.20
2018-08-23T10:37:56.546Z,37.30
2018-08-23T10:40:23.958Z,36.60
2018-08-23T10:42:51.121Z,36.60
2018-08-23T10:45:18.301Z,37.60
2018-08-23T10:47:51.263Z,38.20
2018-08-23T10:50:18.429Z,36.00
2018-08-23T10:52:45.646Z,36.20
2018-08-23T10:55:12.809Z,36.20
2018-08-23T10:57:39.969Z,36.90
2018-08-23T11:00:07.198Z,37.10
2018-08-23T11:02:34.625Z,36.20
2018-08-23T11:05:01.782Z,38.00
2018-08-23T11:07:34.590Z,38.20
2018-08-23T11:10:14.425Z,36.50
2018-08-23T11:12:47.449Z,36.40
2018-08-23T11:15:25.497Z,37.30
2018-08-23T11:17:58.429Z,36.60
2018-08-23T11:20:27.981Z,36.80
2018-08-23T11:22:55.157Z,36.90
2018-08-23T11:25:23.206Z,35.40
2018-08-23T11:27:50.405Z,35.90
2018-08-23T11:30:18.114Z,36.20
2018-08-23T11:32:45.299Z,35.90
2018-08-23T11:35:12.566Z,35.80
2018-08-23T11:37:39.698Z,36.60
2018-08-23T11:40:06.881Z,34.50
2018-08-23T11:42:34.072Z,35.40
2018-08-23T11:45:01.918Z,34.60
2018-08-23T11:47:29.075Z,35.40
2018-08-23T11:49:56.238Z,34.50
2018-08-23T11:52:23.409Z,33.80
2018-08-23T11:54:50.741Z,35.30
2018-08-23T11:57:17.901Z,34.70
2018-08-23T11:59:45.089Z,33.80
2018-08-23T12:02:12.250Z,34.50
2018-08-23T12:04:39.409Z,34.40
2018-08-23T12:07:06.569Z,34.70
2018-08-23T12:09:33.730Z,34.80
2018-08-23T12:12:02.333Z,34.30
2018-08-23T12:14:29.505Z,33.60
2018-08-23T12:16:56.673Z,35.10
2018-08-23T12:19:23.838Z,33.80
2018-08-23T12:21:50.985Z,33.50
2018-08-23T12:24:18.151Z,33.00
2018-08-23T12:26:45.329Z,33.90
2018-08-23T12:29:12.493Z,33.10
2018-08-23T12:31:39.702Z,33.70
2018-08-23T12:34:08.233Z,34.50
2018-08-23T12:36:41.066Z,33.10
2018-08-23T12:39:14.445Z,33.90
2018-08-23T12:41:47.821Z,32.00
2018-08-23T12:44:15.073Z,32.70
2018-08-23T12:46:42.281Z,32.00
2018-08-23T12:49:09.485Z,32.20
2018-08-23T12:51:36.688Z,31.50
2018-08-23T12:54:03.881Z,31.80
2018-08-23T12:56:31.129Z,32.00
2018-08-23T12:58:58.258Z,32.30
2018-08-23T13:01:25.453Z,31.00
2018-08-23T13:03:52.824Z,32.20
2018-08-23T13:06:20.021Z,31.20
2018-08-23T13:08:47.109Z,32.40
2018-08-23T13:11:14.385Z,31.30
2018-08-23T13:13:41.436Z,32.80
2018-08-23T13:16:08.617Z,33.60
2018-08-23T13:18:35.811Z,33.70
2018-08-23T13:21:02.969Z,33.60
2018-08-23T13:23:30.126Z,33.10
2018-08-23T13:25:58.134Z,34.30
2018-08-23T13:28:26.321Z,34.50
2018-08-23T13:30:53.585Z,36.40
2018-08-23T13:33:20.781Z,35.60
2018-08-23T13:35:48.273Z,36.90
2018-08-23T13:38:15.550Z,37.00
2018-08-23T13:40:42.737Z,36.70
2018-08-23T13:43:09.889Z,36.60
2018-08-23T13:45:37.058Z,37.60
2018-08-23T13:48:04.334Z,38.30
2018-08-23T13:50:31.509Z,36.60
2018-08-23T13:52:58.657Z,35.80
2018-08-23T13:55:25.850Z,36.70
2018-08-23T13:57:53.026Z,37.00
2018-08-23T14:00:28.786Z,37.40
2018-08-23T14:02:56.555Z,38.20
2018-08-23T14:05:23.746Z,38.90
2018-08-23T14:07:50.950Z,40.30
2018-08-23T14:10:18.216Z,39.30
2018-08-23T14:12:45.405Z,38.80
2018-08-23T14:15:18.327Z,38.90
2018-08-23T14:17:45.501Z,38.20
2018-08-23T14:20:12.754Z,37.70
2018-08-23T14:22:39.958Z,35.90
2018-08-23T14:25:07.145Z,36.50
2018-08-23T14:27:34.301Z,35.40
2018-08-23T14:30:01.490Z,36.30
2018-08-23T14:32:28.638Z,35.10
2018-08-23T14:34:55.813Z,35.70
2018-08-23T14:37:22.965Z,34.50
2018-08-23T14:39:50.164Z,34.30
2018-08-23T14:42:17.297Z,36.10
2018-08-23T14:44:44.460Z,35.10
2018-08-23T14:47:17.306Z,35.70
2018-08-23T14:49:44.662Z,34.00
2018-08-23T14:52:11.817Z,34.40
2018-08-23T14:54:40.440Z,35.30
2018-08-23T14:57:13.431Z,34.80
2018-08-23T14:59:40.774Z,34.40
2018-08-23T15:02:08.297Z,34.70
2018-08-23T15:04:35.819Z,33.50
2018-08-23T15:07:02.966Z,33.10
2018-08-23T15:09:30.131Z,34.20
2018-08-23T15:11:58.881Z,33.10
2018-08-23T15:14:26.343Z,32.10
2018-08-23T15:16:53.501Z,31.90
2018-08-23T15:19:20.936Z,32.60
2018-08-23T15:21:48.102Z,33.00
2018-08-23T15:24:15.297Z,32.70
2018-08-23T15:26:42.554Z,34.20
2018-08-23T15:29:12.093Z,35.50
2018-08-23T15:31:40.078Z,35.10
2018-08-23T15:34:07.249Z,35.70
2018-08-23T15:36:34.413Z,37.10
2018-08-23T15:39:01.647Z,37.30
2018-08-23T15:41:28.821Z,37.60
2018-08-23T15:43:56.013Z,38.10
2018-08-23T15:46:27.805Z,38.30
2018-08-23T15:48:54.956Z,38.50
2018-08-23T15:51:22.132Z,38.70
2018-08-23T15:53:49.285Z,38.80
2018-08-23T15:56:16.471Z,37.50
2018-08-23T15:58:43.601Z,35.20
2018-08-23T16:01:10.781Z,35.40
2018-08-23T16:03:37.937Z,37.20
2018-08-23T16:06:05.118Z,36.70
2018-08-23T16:08:36.866Z,37.90
2018-08-23T16:11:04.077Z,38.10
2018-08-23T16:13:31.229Z,37.60
2018-08-23T16:16:11.073Z,39.10
2018-08-23T16:18:43.855Z,37.00
2018-08-23T16:21:11.062Z,38.20
2018-08-23T16:23:38.225Z,38.20
2018-08-23T16:26:05.397Z,38.10
2018-08-23T16:28:32.568Z,38.10
2018-08-23T16:30:59.734Z,38.10
2018-08-23T16:33:26.878Z,39.50
2018-08-23T16:35:54.037Z,39.30
2018-08-23T16:38:21.200Z,39.70
2018-08-23T16:40:48.385Z,40.30
2018-08-23T16:43:15.574Z,40.60
2018-08-23T16:45:42.729Z,39.60
2018-08-23T16:50:42.769Z,41.90
2018-08-23T16:53:09.993Z,43.20
2018-08-23T16:55:37.090Z,45.00
2018-08-23T16:58:04.267Z,43.80
2018-08-23T17:00:31.445Z,46.10
2018-08-23T17:02:58.602Z,46.60
2018-08-23T17:05:25.761Z,47.50
2018-08-23T17:07:52.962Z,46.00
2018-08-23T17:10:20.181Z,44.80
2018-08-23T17:12:47.337Z,45.20
2018-08-23T17:15:15.493Z,44.60
2018-08-23T17:17:52.329Z,47.00
2018-08-23T17:20:19.705Z,46.00
2018-08-23T17:22:47.117Z,45.20
2018-08-23T17:25:15.159Z,46.20
2018-08-23T17:27:42.314Z,46.50
2018-08-23T17:30:09.589Z,43.20
2018-08-23T17:32:36.829Z,44.50
2018-08-23T17:35:04.190Z,43.60
2018-08-23T17:37:31.353Z,43.40
2018-08-23T17:39:58.526Z,42.70
2018-08-23T17:42:31.537Z,42.70
2018-08-23T17:44:58.813Z,43.20
2018-08-23T17:47:25.982Z,42.50
2018-08-23T17:49:53.133Z,42.30
2018-08-23T17:52:20.373Z,41.80
2018-08-23T17:54:47.534Z,44.20
2018-08-23T17:57:14.748Z,44.40
2018-08-23T17:59:41.947Z,45.60
2018-08-23T18:02:09.102Z,44.50
2018-08-23T18:04:36.261Z,44.20
2018-08-23T18:07:03.505Z,44.90
2018-08-23T18:09:30.653Z,45.20
2018-08-23T18:11:57.829Z,46.80
2018-08-23T18:14:25.023Z,45.80
2018-08-23T18:16:58.708Z,43.80
2018-08-23T18:19:26.357Z,46.60
2018-08-23T18:21:53.649Z,49.40
2018-08-23T18:24:20.885Z,50.80
2018-08-23T18:26:48.064Z,51.60
2018-08-23T18:29:15.229Z,52.30
2018-08-23T18:31:42.521Z,54.20
2018-08-23T18:34:09.682Z,55.00
2018-08-23T18:36:36.838Z,56.80
2018-08-23T18:39:06.645Z,58.50
2018-08-23T18:41:33.894Z,59.10
2018-08-23T18:44:01.061Z,59.60
2018-08-23T18:46:28.341Z,59.70
2018-08-23T18:48:58.445Z,59.60
2018-08-23T18:51:27.113Z,58.00
2018-08-23T18:53:54.943Z,58.30
2018-08-23T18:56:22.172Z,58.40
2018-08-23T18:58:49.449Z,58.10
2018-08-23T19:01:16.632Z,57.70
2018-08-23T19:03:43.980Z,57.20
2018-08-23T19:06:16.926Z,57.00
2018-08-23T19:08:44.229Z,55.80
2018-08-23T19:11:11.530Z,55.40
2018-08-23T19:13:38.710Z,54.20
2018-08-23T19:16:11.709Z,55.10
2018-08-23T19:18:39.970Z,53.10
2018-08-23T19:21:07.221Z,53.70
2018-08-23T19:23:34.421Z,52.90
2018-08-23T19:26:02.246Z,53.70
2018-08-23T19:28:29.405Z,53.40
2018-08-23T19:30:56.560Z,53.70
2018-08-23T19:33:23.733Z,53.00
2018-08-23T19:35:50.893Z,52.80
2018-08-23T19:38:18.117Z,53.20
2018-08-23T19:40:45.293Z,53.40
2018-08-23T19:43:12.458Z,53.90
2018-08-23T19:45:45.288Z,54.20
2018-08-23T19:48:12.555Z,55.10
2018-08-23T19:50:39.725Z,55.80
2018-08-23T19:53:06.991Z,57.10
2018-08-23T19:55:34.249Z,57.50
2018-08-23T19:58:01.558Z,57.20
2018-08-23T20:00:28.812Z,58.10
2018-08-23T20:02:55.934Z,59.00
2018-08-23T20:05:23.103Z,60.00
2018-08-23T20:07:50.289Z,60.00
2018-08-23T20:10:17.457Z,60.40
2018-08-23T20:12:44.636Z,60.70
2018-08-23T20:15:11.853Z,61.80
2018-08-23T20:17:39.058Z,63.80
2018-08-23T20:20:06.301Z,66.90
2018-08-23T20:22:33.501Z,67.60
2018-08-23T20:25:00.802Z,68.60
2018-08-23T20:27:27.945Z,68.10
2018-08-23T20:29:55.113Z,70.30
2018-08-23T20:32:22.355Z,70.40
2018-08-23T20:34:49.463Z,70.10
2018-08-23T20:37:16.629Z,71.70
2018-08-23T20:39:43.855Z,72.90
2018-08-23T20:42:10.975Z,73.00
2018-08-23T20:44:38.185Z,73.70
2018-08-23T20:47:05.439Z,73.70
2018-08-23T20:49:32.733Z,74.60
2018-08-23T20:51:59.905Z,74.80
2018-08-23T20:54:27.078Z,74.20
2018-08-23T20:56:54.253Z,74.60
2018-08-23T20:59:21.425Z,75.00
2018-08-23T21:01:48.605Z,74.40
2018-08-23T21:04:15.903Z,74.80
2018-08-23T21:06:42.970Z,74.50
2018-08-23T21:09:12.225Z,74.60
2018-08-23T21:11:39.857Z,74.20
2018-08-23T21:14:07.433Z,72.70
2018-08-23T21:16:34.613Z,73.40
2018-08-23T21:19:01.945Z,73.40
2018-08-23T21:21:29.145Z,72.70
2018-08-23T21:23:56.305Z,72.90
2018-08-23T21:26:23.585Z,73.10
2018-08-23T21:28:50.753Z,73.70
2018-08-23T21:31:17.949Z,73.30
2018-08-23T21:33:45.161Z,73.00
2018-08-23T21:36:12.458Z,73.10
2018-08-23T21:38:39.669Z,74.10
2018-08-23T21:41:06.853Z,75.50
2018-08-23T21:43:34.005Z,76.80
2018-08-23T21:46:01.228Z,77.70
2018-08-23T21:48:28.396Z,78.10
2018-08-23T21:50:55.631Z,77.50
2018-08-23T21:53:22.806Z,78.10
2018-08-23T21:55:49.981Z,78.70
2018-08-23T21:58:17.152Z,79.10
2018-08-23T22:00:49.953Z,78.20
2018-08-23T22:03:17.125Z,77.70
2018-08-23T22:05:44.313Z,77.70
2018-08-23T22:08:18.329Z,77.50
2018-08-23T22:10:45.494Z,77.50
2018-08-23T22:13:12.662Z,77.20
2018-08-23T22:15:46.492Z,78.70
2018-08-23T22:18:13.921Z,79.20
2018-08-23T22:20:41.289Z,79.90
2018-08-23T22:23:08.634Z,79.80
2018-08-23T22:25:35.863Z,79.70
2018-08-23T22:28:03.037Z,80.00
2018-08-23T22:30:30.216Z,79.90
2018-08-23T22:32:57.381Z,79.50
2018-08-23T22:35:24.552Z,78.70
2018-08-23T22:37:51.712Z,78.30
2018-08-23T22:40:18.902Z,78.10
2018-08-23T22:42:46.073Z,77.80
2018-08-23T22:45:13.225Z,78.00
2018-08-23T22:47:40.390Z,78.30
2018-08-23T22:50:07.897Z,78.50
2018-08-23T22:55:09.053Z,79.00
2018-08-23T22:57:36.224Z,79.20
2018-08-23T23:00:03.509Z,79.80
2018-08-23T23:02:36.633Z,79.60
2018-08-23T23:05:03.849Z,79.30
2018-08-23T23:07:31.021Z,78.90
2018-08-23T23:09:58.188Z,79.10
2018-08-23T23:12:25.361Z,79.50
2018-08-23T23:14:52.522Z,80.10
2018-08-23T23:17:19.693Z,80.50
2018-08-23T23:19:47.670Z,80.10
2018-08-23T23:22:14.980Z,80.10
2018-08-23T23:24:47.977Z,80.20
2018-08-23T23:27:15.170Z,80.10
2018-08-23T23:29:49.046Z,80.40
2018-08-23T23:32:16.209Z,80.00
2018-08-23T23:34:43.346Z,79.60
2018-08-23T23:37:10.503Z,78.80
2018-08-23T23:39:37.638Z,77.80
2018-08-23T23:42:04.798Z,77.00
2018-08-23T23:44:31.964Z,76.30
2018-08-23T23:46:59.196Z,76.80
2018-08-23T23:49:26.338Z,75.40
2018-08-23T23:51:53.507Z,74.40
2018-08-23T23:54:20.663Z,74.20
2018-08-23T23:56:47.831Z,73.80
2018-08-23T23:59:14.984Z,74.20
